createdAt,value
2022-08-01T00:01:33.266Z,13.23
2022-08-01T00:04:01.789Z,13.22
2022-08-01T00:06:30.508Z,13.19
2022-08-01T00:08:59.051Z,13.17
2022-08-01T00:11:27.498Z,13.15
2022-08-01T00:13:56.066Z,13.11
2022-08-01T00:16:24.850Z,13.10
2022-08-01T00:18:57.176Z,13.08
2022-08-01T00:21:25.626Z,13.07
2022-08-01T00:23:54.051Z,13.05
2022-08-01T00:26:22.601Z,13.02
2022-08-01T00:28:51.039Z,13.00
2022-08-01T00:31:19.451Z,12.97
2022-08-01T00:33:49.922Z,12.95
2022-08-01T00:36:18.334Z,12.93
2022-08-01T00:38:46.775Z,12.91
2022-08-01T00:41:15.248Z,12.89
2022-08-01T00:43:44.806Z,12.88
2022-08-01T00:46:13.337Z,12.86
2022-08-01T00:48:41.835Z,12.84
2022-08-01T00:51:11.026Z,12.82
2022-08-01T00:58:03.884Z,12.75
2022-08-01T01:00:28.440Z,12.75
2022-08-01T01:02:57.117Z,12.74
2022-08-01T01:05:25.670Z,12.73
2022-08-01T01:08:04.777Z,12.71
2022-08-01T01:10:38.492Z,12.69
2022-08-01T01:13:11.780Z,12.66
2022-08-01T01:15:46.831Z,12.65
2022-08-01T01:18:23.071Z,12.64
2022-08-01T01:21:01.922Z,12.62
2022-08-01T01:23:45.424Z,12.60
2022-08-01T01:26:28.507Z,12.58
2022-08-01T01:29:04.429Z,12.57
2022-08-01T01:31:41.268Z,12.56
2022-08-01T01:34:12.420Z,12.55
2022-08-01T01:36:43.366Z,12.53
2022-08-01T01:39:12.422Z,12.52
2022-08-01T01:41:43.293Z,12.50
2022-08-01T01:44:12.286Z,12.47
2022-08-01T01:46:41.803Z,12.45
2022-08-01T01:49:12.425Z,12.44
2022-08-01T01:51:57.390Z,12.43
2022-08-01T02:01:58.854Z,12.36
2022-08-01T02:04:13.471Z,12.35
2022-08-01T02:06:42.919Z,12.35
2022-08-01T02:09:15.203Z,12.36
2022-08-01T02:12:07.528Z,12.36
2022-08-01T02:14:36.573Z,12.36
2022-08-01T02:17:05.363Z,12.36
2022-08-01T02:19:38.326Z,12.35
2022-08-01T02:22:14.915Z,12.33
2022-08-01T02:24:49.909Z,12.31
2022-08-01T02:27:29.574Z,12.29
2022-08-01T02:30:02.163Z,12.28
2022-08-01T02:32:35.639Z,12.25
2022-08-01T02:35:08.156Z,12.23
2022-08-01T02:37:42.933Z,12.21
2022-08-01T02:40:17.629Z,12.19
2022-08-01T02:42:50.151Z,12.18
2022-08-01T02:45:21.486Z,12.16
2022-08-01T02:47:52.839Z,12.14
2022-08-01T02:50:24.375Z,12.13
2022-08-01T02:52:56.045Z,12.11
2022-08-01T02:55:25.440Z,12.08
2022-08-01T02:58:00.108Z,12.07
2022-08-01T03:00:31.929Z,12.05
2022-08-01T03:03:02.467Z,12.04
2022-08-01T03:05:32.671Z,12.04
2022-08-01T03:08:03.758Z,12.03
2022-08-01T03:10:34.282Z,12.02
2022-08-01T03:13:05.609Z,12.01
2022-08-01T03:15:39.536Z,12.01
2022-08-01T03:18:10.860Z,12.02
2022-08-01T03:20:40.812Z,12.01
2022-08-01T03:23:14.982Z,12.02
2022-08-01T03:25:46.858Z,12.03
2022-08-01T03:28:16.887Z,12.04
2022-08-01T03:30:46.389Z,12.04
2022-08-01T03:33:14.837Z,12.05
2022-08-01T03:35:49.059Z,12.06
2022-08-01T03:38:22.071Z,12.08
2022-08-01T03:40:57.046Z,12.10
2022-08-01T03:43:33.013Z,12.11
2022-08-01T03:46:08.469Z,12.14
2022-08-01T03:48:41.523Z,12.18
2022-08-01T03:51:11.226Z,12.21
2022-08-01T03:53:42.484Z,12.25
2022-08-01T03:56:15.530Z,12.32
2022-08-01T03:58:45.056Z,12.40
2022-08-01T04:01:23.087Z,12.51
2022-08-01T04:03:56.752Z,12.62
2022-08-01T04:06:25.192Z,12.73
2022-08-01T04:08:57.785Z,12.83
2022-08-01T04:11:28.624Z,12.94
2022-08-01T04:13:58.638Z,13.05
2022-08-01T04:16:27.228Z,13.16
2022-08-01T04:18:56.006Z,13.27
2022-08-01T04:21:28.327Z,13.39
2022-08-01T04:24:01.185Z,13.51
2022-08-01T04:26:32.978Z,13.63
2022-08-01T04:29:03.283Z,13.75
2022-08-01T04:31:32.697Z,13.87
2022-08-01T04:34:05.399Z,13.98
2022-08-01T04:36:36.654Z,14.08
2022-08-01T04:39:08.389Z,14.21
2022-08-01T04:41:40.631Z,14.32
2022-08-01T04:44:09.198Z,14.45
2022-08-01T04:46:39.258Z,14.57
2022-08-01T04:49:09.417Z,14.70
2022-08-01T04:51:37.936Z,14.83
2022-08-01T04:54:07.782Z,14.96
2022-08-01T04:56:36.189Z,15.06
2022-08-01T04:59:22.110Z,15.15
2022-08-01T05:01:51.865Z,15.24
2022-08-01T05:04:20.561Z,15.35
2022-08-01T05:06:48.989Z,15.46
2022-08-01T05:09:17.433Z,15.57
2022-08-01T05:11:45.833Z,15.66
2022-08-01T05:14:14.282Z,15.76
2022-08-01T05:16:45.047Z,15.85
2022-08-01T05:19:13.520Z,15.89
2022-08-01T05:21:41.924Z,15.95
2022-08-01T05:24:10.648Z,16.03
2022-08-01T05:26:40.490Z,16.12
2022-08-01T05:29:08.859Z,16.18
2022-08-01T05:31:37.763Z,16.22
2022-08-01T05:34:06.275Z,16.30
2022-08-01T05:36:43.717Z,16.36
2022-08-01T05:39:12.660Z,16.43
2022-08-01T05:41:41.708Z,16.49
2022-08-01T05:44:11.864Z,16.52
2022-08-01T05:46:40.477Z,16.54
2022-08-01T05:49:11.476Z,16.61
2022-08-01T05:51:40.121Z,16.70
2022-08-01T05:57:37.439Z,16.83
2022-08-01T06:00:13.121Z,16.96
2022-08-01T06:02:44.404Z,17.10
2022-08-01T06:05:13.609Z,17.25
2022-08-01T06:07:42.506Z,17.39
2022-08-01T06:10:11.410Z,17.50
2022-08-01T07:30:02.138Z,20.52
2022-08-01T07:32:31.578Z,20.58
2022-08-01T07:35:00.374Z,20.63
2022-08-01T07:37:48.592Z,20.66
2022-08-01T07:40:18.488Z,20.67
2022-08-01T07:42:47.687Z,20.66
2022-08-01T07:45:16.135Z,20.65
2022-08-01T07:47:44.604Z,20.65
2022-08-01T07:50:13.226Z,20.68
2022-08-01T07:52:41.779Z,20.73
2022-08-01T07:55:12.148Z,20.81
2022-08-01T07:57:45.433Z,20.88
2022-08-01T08:00:15.414Z,20.93
2022-08-01T08:02:44.523Z,20.90
2022-08-01T08:05:13.607Z,20.93
2022-08-01T08:07:42.097Z,21.03
2022-08-01T08:10:10.915Z,21.11
2022-08-01T08:12:39.602Z,21.14
2022-08-01T08:15:10.272Z,21.18
2022-08-01T08:17:39.640Z,21.25
2022-08-01T08:20:10.105Z,21.32
2022-08-01T08:22:39.602Z,21.39
2022-08-01T08:25:09.417Z,21.45
2022-08-01T08:27:38.111Z,21.48
2022-08-01T08:30:09.119Z,21.54
2022-08-01T08:32:37.954Z,21.65
2022-08-01T08:35:08.802Z,21.75
2022-08-01T08:37:47.330Z,21.81
2022-08-01T08:40:17.817Z,21.86
2022-08-01T08:42:48.325Z,21.86
2022-08-01T08:45:17.033Z,21.88
2022-08-01T08:47:50.284Z,21.92
2022-08-01T08:50:18.828Z,21.93
2022-08-01T08:52:48.823Z,21.92
2022-08-01T08:55:18.781Z,21.88
2022-08-01T08:57:49.515Z,21.85
2022-08-01T09:00:18.267Z,21.82
2022-08-01T09:02:49.673Z,21.81
2022-08-01T09:05:19.994Z,21.82
2022-08-01T09:07:48.632Z,21.81
2022-08-01T09:10:17.315Z,21.76
2022-08-01T09:13:11.199Z,21.73
2022-08-01T09:15:42.353Z,21.68
2022-08-01T09:18:26.694Z,21.64
2022-08-01T09:21:09.681Z,21.65
2022-08-01T09:23:53.913Z,21.68
2022-08-01T09:26:31.804Z,21.70
2022-08-01T09:29:01.395Z,21.70
2022-08-01T09:31:39.920Z,21.70
2022-08-01T09:34:10.417Z,21.73
2022-08-01T09:36:51.474Z,21.79
2022-08-01T09:39:24.541Z,21.82
2022-08-01T09:41:54.891Z,21.83
2022-08-01T09:44:44.133Z,21.80
2022-08-01T09:47:15.390Z,21.75
2022-08-01T09:49:50.771Z,21.76
2022-08-01T09:52:25.655Z,21.77
2022-08-01T09:54:56.811Z,21.80
2022-08-01T09:57:25.815Z,21.84
2022-08-01T09:59:58.720Z,21.89
2022-08-01T10:02:31.155Z,21.98
2022-08-01T10:05:03.710Z,22.03
2022-08-01T10:07:55.241Z,22.04
2022-08-01T10:10:29.268Z,22.07
2022-08-01T10:13:01.384Z,22.13
2022-08-01T10:15:36.492Z,22.17
2022-08-01T10:18:16.604Z,22.23
2022-08-01T10:21:50.877Z,22.26
2022-08-01T10:24:18.818Z,22.25
2022-08-01T10:26:51.984Z,22.26
2022-08-01T10:29:46.703Z,22.31
2022-08-01T10:32:18.257Z,22.41
2022-08-01T10:34:47.874Z,22.48
2022-08-01T10:37:18.018Z,22.52
2022-08-01T10:39:47.470Z,22.58
2022-08-01T10:42:16.103Z,22.68
2022-08-01T10:44:49.257Z,22.72
2022-08-01T10:47:49.914Z,22.75
2022-08-01T10:50:25.906Z,22.82
2022-08-01T10:53:16.515Z,22.92
2022-08-01T10:55:50.381Z,23.01
2022-08-01T10:58:23.648Z,23.07
2022-08-01T11:01:19.885Z,23.10
2022-08-01T11:04:02.606Z,23.17
2022-08-01T11:06:54.841Z,23.26
2022-08-01T11:09:37.552Z,23.38
2022-08-01T11:12:13.686Z,23.48
2022-08-01T11:15:29.211Z,23.53
2022-08-01T11:18:01.620Z,23.55
2022-08-01T11:20:33.146Z,23.59
2022-08-01T11:23:36.128Z,23.64
2022-08-01T11:26:17.433Z,23.70
2022-08-01T11:29:20.099Z,23.74
2022-08-01T11:31:52.097Z,23.78
2022-08-01T11:34:20.944Z,23.82
2022-08-01T11:37:10.447Z,23.87
2022-08-01T11:39:42.104Z,23.90
2022-08-01T11:42:21.493Z,23.99
2022-08-01T11:44:51.130Z,24.04
2022-08-01T11:47:39.591Z,24.05
2022-08-01T11:50:32.611Z,24.10
2022-08-01T11:53:02.312Z,24.11
2022-08-01T11:55:32.151Z,24.16
2022-08-01T11:58:06.670Z,24.19
2022-08-01T12:00:37.610Z,24.22
2022-08-01T12:03:20.663Z,24.27
2022-08-01T12:06:01.241Z,24.26
2022-08-01T12:08:33.278Z,24.23
2022-08-01T12:11:04.030Z,24.24
2022-08-01T12:13:43.417Z,24.25
2022-08-01T12:16:12.738Z,24.23
2022-08-01T12:18:41.706Z,24.19
2022-08-01T12:21:10.594Z,24.12
2022-08-01T12:23:39.177Z,24.14
2022-08-01T12:26:07.586Z,24.18
2022-08-01T12:28:41.212Z,24.24
2022-08-01T12:31:09.966Z,24.30
2022-08-01T12:33:44.318Z,24.36
2022-08-01T12:36:14.810Z,24.40
2022-08-01T12:38:43.526Z,24.40
2022-08-01T12:41:13.704Z,24.38
2022-08-01T12:43:42.383Z,24.41
2022-08-01T12:46:16.499Z,24.47
2022-08-01T12:48:45.416Z,24.47
2022-08-01T12:51:13.937Z,24.43
2022-08-01T12:53:42.464Z,24.41
2022-08-01T12:56:12.195Z,24.36
2022-08-01T12:58:41.153Z,24.35
2022-08-01T13:01:11.859Z,24.35
2022-08-01T13:03:41.282Z,24.40
2022-08-01T13:06:15.209Z,24.44
2022-08-01T13:08:44.092Z,24.47
2022-08-01T13:11:14.637Z,24.55
2022-08-01T13:13:47.547Z,24.60
2022-08-01T13:16:30.552Z,24.62
2022-08-01T13:19:06.933Z,24.61
2022-08-01T13:21:53.194Z,24.63
2022-08-01T13:24:28.089Z,24.69
2022-08-01T13:27:00.213Z,24.73
2022-08-01T13:29:33.581Z,24.73
2022-08-01T13:32:12.478Z,24.80
2022-08-01T13:35:03.667Z,24.86
2022-08-01T13:37:32.501Z,24.94
2022-08-01T13:40:01.104Z,24.99
2022-08-01T13:42:29.939Z,25.04
2022-08-01T13:44:58.350Z,25.11
2022-08-01T13:47:31.457Z,25.13
2022-08-01T13:50:03.066Z,25.16
2022-08-01T13:52:32.247Z,25.20
2022-08-01T13:55:01.636Z,25.24
2022-08-01T13:57:36.464Z,25.23
2022-08-01T14:00:09.758Z,25.22
2022-08-01T14:02:41.283Z,25.23
2022-08-01T14:05:10.518Z,25.24
2022-08-01T14:07:39.103Z,25.24
2022-08-01T14:10:19.948Z,25.23
2022-08-01T14:12:49.081Z,25.24
2022-08-01T14:15:36.960Z,25.22
2022-08-01T14:18:07.744Z,25.25
2022-08-01T14:20:39.240Z,25.29
2022-08-01T14:23:08.934Z,25.32
2022-08-01T14:26:00.561Z,25.34
2022-08-01T14:28:28.553Z,25.37
2022-08-01T14:30:57.396Z,25.38
2022-08-01T14:33:26.648Z,25.37
2022-08-01T14:36:05.421Z,25.35
2022-08-01T14:38:35.367Z,25.37
2022-08-01T14:41:04.853Z,25.41
2022-08-01T14:43:33.936Z,25.45
2022-08-01T14:46:04.574Z,25.47
2022-08-01T14:48:33.233Z,25.50
2022-08-01T14:51:03.026Z,25.51
2022-08-01T14:53:34.285Z,25.55
2022-08-01T14:56:05.548Z,25.59
2022-08-01T14:58:34.437Z,25.57
2022-08-01T15:01:06.181Z,25.56
2022-08-01T15:03:34.657Z,25.58
2022-08-01T15:06:03.495Z,25.60
2022-08-01T15:08:32.705Z,25.64
2022-08-01T15:11:02.102Z,25.62
2022-08-01T15:13:30.862Z,25.59
2022-08-01T15:16:00.184Z,25.59
2022-08-01T15:18:29.203Z,25.58
2022-08-01T15:20:57.978Z,25.55
2022-08-01T15:23:26.400Z,25.50
2022-08-01T15:25:54.856Z,25.48
2022-08-01T15:28:23.297Z,25.46
2022-08-01T15:30:51.875Z,25.42
2022-08-01T15:33:21.948Z,25.33
2022-08-01T15:35:52.788Z,25.30
2022-08-01T15:38:22.290Z,25.25
2022-08-01T15:40:55.114Z,25.20
2022-08-01T15:43:23.798Z,25.16
2022-08-01T15:45:55.711Z,25.14
2022-08-01T15:48:24.260Z,25.12
2022-08-01T15:50:52.709Z,25.09
2022-08-01T15:53:21.483Z,25.03
2022-08-01T15:55:52.487Z,25.02
2022-08-01T15:58:21.330Z,24.99
2022-08-01T16:00:49.833Z,24.97
2022-08-01T16:03:18.293Z,24.93
2022-08-01T16:05:46.718Z,24.89
2022-08-01T16:08:15.291Z,24.83
2022-08-01T16:10:43.869Z,24.81
2022-08-01T16:13:12.596Z,24.81
2022-08-01T16:15:41.497Z,24.83
2022-08-01T16:18:12.666Z,24.81
2022-08-01T16:20:45.462Z,24.79
2022-08-01T16:23:15.452Z,24.77
2022-08-01T16:25:44.720Z,24.77
2022-08-01T16:28:13.646Z,24.75
2022-08-01T16:30:47.884Z,24.76
2022-08-01T16:33:50.786Z,24.75
2022-08-01T16:36:16.799Z,24.73
2022-08-01T16:38:46.030Z,24.70
2022-08-01T16:41:19.994Z,24.67
2022-08-01T16:43:54.321Z,24.66
2022-08-01T16:46:26.282Z,24.62
2022-08-01T16:48:54.988Z,24.59
2022-08-01T16:51:24.061Z,24.58
2022-08-01T16:53:52.598Z,24.58
2022-08-01T16:56:23.488Z,24.56
2022-08-01T16:58:52.029Z,24.53
2022-08-01T17:01:53.558Z,24.51
2022-08-01T17:04:09.002Z,24.50
2022-08-01T17:06:37.476Z,24.49
2022-08-01T17:09:05.953Z,24.45
2022-08-01T17:11:34.465Z,24.44
2022-08-01T17:14:03.869Z,24.41
2022-08-01T17:16:32.433Z,24.40
2022-08-01T17:19:01.462Z,24.38
2022-08-01T17:21:29.998Z,24.34
2022-08-01T17:23:58.427Z,24.28
2022-08-01T17:26:27.076Z,24.26
2022-08-01T17:28:55.657Z,24.24
2022-08-01T17:31:24.123Z,24.21
2022-08-01T17:33:54.955Z,24.17
2022-08-01T17:36:23.978Z,24.14
2022-08-01T17:38:52.456Z,24.11
2022-08-01T17:41:21.068Z,24.07
2022-08-01T17:43:49.466Z,24.05
2022-08-01T17:46:18.101Z,24.04
2022-08-01T17:48:46.692Z,24.02
2022-08-01T17:51:19.301Z,24.00
2022-08-01T17:53:57.478Z,23.97
2022-08-01T17:56:27.030Z,23.93
2022-08-01T17:58:56.345Z,23.90
2022-08-01T18:01:26.731Z,23.89
2022-08-01T18:03:57.339Z,23.83
2022-08-01T18:06:27.876Z,23.78
2022-08-01T18:08:56.643Z,23.72
2022-08-01T18:11:28.509Z,23.66
2022-08-01T18:13:57.903Z,23.60
2022-08-01T18:16:28.558Z,23.54
2022-08-01T18:18:57.145Z,23.49
2022-08-01T18:21:25.720Z,23.43
2022-08-01T18:23:54.217Z,23.36
2022-08-01T18:26:23.107Z,23.30
2022-08-01T18:28:51.553Z,23.25
2022-08-01T18:31:20.111Z,23.21
2022-08-01T18:33:49.726Z,23.18
2022-08-01T18:36:31.780Z,23.13
2022-08-01T18:39:04.600Z,23.08
2022-08-01T18:41:34.252Z,23.04
2022-08-01T18:44:08.400Z,23.01
2022-08-01T18:46:40.038Z,22.97
2022-08-01T18:49:10.264Z,22.94
2022-08-01T18:51:44.351Z,22.90
2022-08-01T18:54:14.704Z,22.85
2022-08-01T18:56:44.153Z,22.81
2022-08-01T18:59:13.293Z,22.77
2022-08-01T19:01:42.024Z,22.71
2022-08-01T19:04:10.750Z,22.67
2022-08-01T19:06:40.358Z,22.63
2022-08-01T19:09:09.343Z,22.59
2022-08-01T19:11:38.115Z,22.54
2022-08-01T19:14:06.565Z,22.48
2022-08-01T19:16:35.200Z,22.42
2022-08-01T19:19:06.945Z,22.37
2022-08-01T19:21:36.020Z,22.30
2022-08-01T19:24:22.696Z,22.24
2022-08-01T19:26:56.426Z,22.18
2022-08-01T19:29:35.772Z,22.12
2022-08-01T19:32:07.628Z,22.06
2022-08-01T19:34:43.432Z,21.98
2022-08-01T19:37:11.900Z,21.93
2022-08-01T19:39:44.872Z,21.87
2022-08-01T19:42:13.656Z,21.82
2022-08-01T19:44:44.705Z,21.76
2022-08-01T19:47:13.903Z,21.71
2022-08-01T19:49:42.573Z,21.65
2022-08-01T19:52:15.320Z,21.60
2022-08-01T19:54:45.274Z,21.53
2022-08-01T19:57:15.533Z,21.48
2022-08-01T19:59:46.370Z,21.43
2022-08-01T20:02:18.548Z,21.38
2022-08-01T20:04:48.191Z,21.33
2022-08-01T20:07:17.052Z,21.29
2022-08-01T20:09:48.523Z,21.25
2022-08-01T20:12:21.778Z,21.22
2022-08-01T20:14:53.357Z,21.19
2022-08-01T20:17:22.680Z,21.15
2022-08-01T20:19:51.851Z,21.12
2022-08-01T20:22:25.733Z,21.09
2022-08-01T20:24:58.273Z,21.05
2022-08-01T20:27:30.478Z,21.01
2022-08-01T20:30:00.597Z,20.97
2022-08-01T20:32:32.990Z,20.94
2022-08-01T20:35:02.935Z,20.92
2022-08-01T20:38:04.064Z,20.88
2022-08-01T20:40:27.615Z,20.84
2022-08-01T20:42:57.515Z,20.79
2022-08-01T20:45:27.225Z,20.75
2022-08-01T20:47:57.438Z,20.69
2022-08-01T20:50:53.291Z,20.64
2022-08-01T20:53:25.504Z,20.59
2022-08-01T20:56:04.156Z,20.53
2022-08-01T20:58:44.304Z,20.49
2022-08-01T21:01:15.527Z,20.44
2022-08-01T21:03:57.475Z,20.38
2022-08-01T21:06:33.565Z,20.33
2022-08-01T21:09:04.414Z,20.28
2022-08-01T21:11:40.401Z,20.22
2022-08-01T21:14:13.720Z,20.17
2022-08-01T21:16:54.373Z,20.12
2022-08-01T21:19:25.842Z,20.07
2022-08-01T21:22:08.140Z,20.02
2022-08-01T21:24:46.296Z,19.97
2022-08-01T21:27:33.144Z,19.93
2022-08-01T21:30:06.246Z,19.89
2022-08-01T21:32:37.444Z,19.85
2022-08-01T21:35:15.601Z,19.82
2022-08-01T21:37:46.404Z,19.78
2022-08-01T21:40:23.112Z,19.76
2022-08-01T21:42:53.128Z,19.74
2022-08-01T21:45:23.990Z,19.73
2022-08-01T21:47:53.278Z,19.71
2022-08-01T21:50:22.723Z,19.70
2022-08-01T21:53:02.549Z,19.69
2022-08-01T21:55:51.893Z,19.68
2022-08-01T21:58:32.835Z,19.66
2022-08-01T22:01:07.883Z,19.66
2022-08-01T22:03:44.260Z,19.65
2022-08-01T22:06:13.809Z,19.65
2022-08-01T22:08:49.189Z,19.65
2022-08-01T22:11:22.107Z,19.64
2022-08-01T22:13:54.228Z,19.64
2022-08-01T22:16:23.077Z,19.62
2022-08-01T22:18:52.452Z,19.61
2022-08-01T22:21:21.391Z,19.60
2022-08-01T22:23:52.711Z,19.58
2022-08-01T22:26:28.999Z,19.56
2022-08-01T22:28:58.553Z,19.55
2022-08-01T22:31:27.436Z,19.54
2022-08-01T22:33:55.935Z,19.54
2022-08-01T22:36:25.205Z,19.54
2022-08-01T22:38:53.645Z,19.52
2022-08-01T22:41:30.692Z,19.49
2022-08-01T22:44:30.079Z,19.45
2022-08-01T22:47:04.193Z,19.42
2022-08-01T22:49:37.269Z,19.39
2022-08-01T22:52:12.375Z,19.37
2022-08-01T22:54:43.762Z,19.35
2022-08-01T22:57:24.239Z,19.34
2022-08-01T22:59:59.159Z,19.33
2022-08-01T23:02:30.513Z,19.31
2022-08-01T23:05:04.187Z,19.29
2022-08-01T23:07:38.516Z,19.28
2022-08-01T23:10:09.470Z,19.28
2022-08-01T23:12:40.439Z,19.25
2022-08-01T23:15:11.672Z,19.21
2022-08-01T23:17:42.433Z,19.16
2022-08-01T23:20:12.962Z,19.13
2022-08-01T23:22:42.024Z,19.11
2022-08-01T23:25:12.985Z,19.09
2022-08-01T23:27:55.921Z,19.07
2022-08-01T23:30:35.869Z,19.05
2022-08-01T23:33:04.554Z,19.05
2022-08-01T23:35:35.516Z,19.05
2022-08-01T23:38:09.438Z,19.04
2022-08-01T23:40:38.437Z,19.04
2022-08-01T23:43:08.307Z,19.05
2022-08-01T23:46:04.117Z,19.04
2022-08-01T23:48:34.931Z,19.04
2022-08-01T23:51:04.588Z,19.03
2022-08-01T23:53:33.946Z,19.02
2022-08-01T23:56:08.562Z,19.02
2022-08-01T23:58:36.931Z,19.00
